KHGR/HGR METAR and TAF weather

Enter ICAO airport designator
Station Type Date Time Source
KHGR METAR 2018/12/19 02:53 UTC NOAA

KHGR 190253Z 00000KT 10SM CLR 00/M07 A3017 RMK AO2 SLP234 T00001067 51003


Station Type Date Time Source
KHGR Decoded METAR 2018/12/19 02:53 UTC NOAA

HAGERSTOWN REGIONAL AIRPORT, MD, United States (KHGR) 39-42N 077-44W 224M
Dec 18, 2018 - 09:53 PM EST / 2018.12.19 0253 UTC
Wind: Calm:0
Visibility: 10 mile(s):0
Sky conditions: clear
Temperature: 32.0 F (0.0 C)
Dew Point: 19.9 F (-6.7 C)
Relative Humidity: 60%
Pressure (altimeter): 30.17 in. Hg (1021 hPa)
Pressure tendency: 0.01 inches (0.3 hPa) higher than three hours ago
ob: KHGR 190253Z 00000KT 10SM CLR 00/M07 A3017 RMK AO2 SLP234 T00001067 51003
cycle: 3

Station Type Date Time Source
KHGR TAF UTC NOAA

Error!


Example: see airport list